Time;durP1;ratioP1;P1;durP2;ratioP2;P2;SDS_P1;SDS_P2;PMS_P1;PMS_P2;Temp;Humidity;BMP_temperature;BMP_pressure;BME280_temperature;BME280_humidity;BME280_pressure;Samples;Min_cycle;Max_cycle;Signal;HPM_P1;HPM_P2
2022/10/26 00:02:24;;;;;;;14.43;8.77;;;10.70;99.90;;;;;;6189427;23;20012;-80
2022/10/26 00:04:50;;;;;;;15.88;8.52;;;10.60;99.90;;;;;;6215269;23;20118;-80
2022/10/26 00:07:15;;;;;;;16.75;8.40;;;10.60;99.90;;;;;;6214297;23;20036;-80
2022/10/26 00:09:41;;;;;;;14.77;8.18;;;10.60;99.90;;;;;;6215161;23;20012;-80
2022/10/26 00:12:06;;;;;;;13.88;7.80;;;10.60;99.90;;;;;;6189438;23;20459;-80
2022/10/26 00:14:32;;;;;;;15.60;8.23;;;10.60;99.90;;;;;;6214620;23;20012;-80
2022/10/26 00:16:58;;;;;;;15.73;7.68;;;10.60;99.90;;;;;;6214884;23;20016;-80
2022/10/26 00:19:24;;;;;;;15.45;9.18;;;10.60;99.90;;;;;;6214668;23;20459;-80
2022/10/26 00:21:50;;;;;;;13.35;7.60;;;10.60;99.90;;;;;;6214283;23;20445;-80
2022/10/26 00:24:16;;;;;;;14.45;8.18;;;10.60;99.90;;;;;;6214486;23;20087;-80
2022/10/26 00:26:41;;;;;;;15.00;7.68;;;10.60;99.90;;;;;;6188759;23;20403;-80
2022/10/26 00:29:08;;;;;;;13.90;8.13;;;10.60;99.90;;;;;;6189391;23;20050;-80
2022/10/26 00:31:34;;;;;;;12.43;7.85;;;10.60;99.90;;;;;;6214573;23;20012;-80
2022/10/26 00:34:00;;;;;;;15.93;8.32;;;10.60;99.90;;;;;;6241427;23;20009;-81
2022/10/26 00:36:26;;;;;;;17.15;8.00;;;10.60;99.90;;;;;;6214199;23;20012;-80
2022/10/26 00:38:53;;;;;;;15.13;8.07;;;10.60;99.90;;;;;;6213987;23;20063;-80
2022/10/26 00:41:29;;;;;;;15.15;7.13;;;10.60;99.90;;;;;;6213737;23;20053;-80
2022/10/26 00:43:55;;;;;;;14.13;7.72;;;10.60;99.90;;;;;;6214390;23;20012;-80
2022/10/26 00:46:25;;;;;;;22.45;8.38;;;10.50;99.90;;;;;;6241213;23;20079;-80
2022/10/26 00:48:55;;;;;;;14.68;7.97;;;10.50;99.90;;;;;;6241163;23;20012;-80
2022/10/26 00:51:31;;;;;;;19.45;8.45;;;10.50;99.90;;;;;;6214178;23;20505;-80
2022/10/26 00:53:58;;;;;;;14.32;7.72;;;10.50;99.90;;;;;;6240713;23;20463;-80
2022/10/26 00:56:24;;;;;;;14.43;8.68;;;10.50;99.90;;;;;;6214038;23;20020;-80
2022/10/26 00:58:50;;;;;;;14.48;8.25;;;10.50;99.90;;;;;;6241582;23;20055;-80
2022/10/26 01:01:16;;;;;;;15.68;8.43;;;10.50;99.90;;;;;;6240963;23;20052;-80
2022/10/26 01:03:42;;;;;;;18.20;8.35;;;10.40;99.90;;;;;;6241189;23;20459;-80
2022/10/26 01:06:09;;;;;;;15.10;7.88;;;10.40;99.90;;;;;;6241357;23;20087;-81
2022/10/26 01:08:35;;;;;;;16.08;8.38;;;10.40;99.90;;;;;;6213454;23;20012;-80
2022/10/26 01:11:02;;;;;;;12.77;8.32;;;10.40;99.90;;;;;;6213816;23;20020;-80
2022/10/26 01:13:31;;;;;;;12.40;7.60;;;10.50;99.90;;;;;;6240550;23;20098;-80
2022/10/26 01:16:23;;;;;;;16.08;8.48;;;10.30;99.90;;;;;;6214102;23;20012;-80
2022/10/26 01:18:52;;;;;;;13.85;7.85;;;10.30;99.90;;;;;;6214035;23;20016;-80
2022/10/26 01:21:33;;;;;;;15.40;8.45;;;10.30;99.90;;;;;;6240870;23;20313;-80
2022/10/26 01:24:40;;;;;;;17.08;7.75;;;10.20;99.90;;;;;;6213031;23;20036;-80
2022/10/26 01:27:17;;;;;;;13.70;7.85;;;10.20;99.90;;;;;;6239464;23;20502;-80
2022/10/26 01:30:09;;;;;;;12.32;6.90;;;10.20;99.90;;;;;;6240617;23;20031;-80
2022/10/26 01:33:04;;;;;;;14.70;7.70;;;10.10;99.90;;;;;;6241512;23;20050;-79
2022/10/26 01:35:57;;;;;;;13.85;7.55;;;10.10;99.90;;;;;;6188774;23;20728;-80
2022/10/26 01:38:30;;;;;;;13.27;7.28;;;10.00;99.90;;;;;;6240323;23;20024;-80
2022/10/26 01:41:05;;;;;;;12.13;6.53;;;10.00;99.90;;;;;;6188720;23;20016;-80
2022/10/26 01:43:35;;;;;;;11.88;7.47;;;9.90;99.90;;;;;;6213734;23;20083;-80
2022/10/26 01:46:04;;;;;;;13.93;6.88;;;9.90;99.90;;;;;;6213240;23;20027;-80
2022/10/26 01:48:31;;;;;;;11.73;6.50;;;9.80;99.90;;;;;;6240792;23;20016;-80
2022/10/26 01:50:58;;;;;;;14.85;7.05;;;9.80;99.90;;;;;;6241158;23;20048;-80
2022/10/26 01:53:25;;;;;;;11.15;6.63;;;9.80;99.90;;;;;;6240315;23;20020;-80
2022/10/26 01:55:52;;;;;;;14.35;7.07;;;9.70;99.90;;;;;;6188967;23;20016;-80
2022/10/26 01:58:57;;;;;;;13.82;7.63;;;9.70;99.90;;;;;;6240696;23;20457;-80
2022/10/26 02:01:43;;;;;;;14.18;7.05;;;9.60;99.90;;;;;;6241324;23;20020;-80
2022/10/26 02:04:14;;;;;;;12.93;7.70;;;9.60;99.90;;;;;;6215199;23;20380;-80
2022/10/26 02:07:07;;;;;;;15.05;7.88;;;9.50;99.90;;;;;;6242369;23;20044;-80
2022/10/26 02:10:20;;;;;;;14.20;7.38;;;9.40;99.90;;;;;;6242790;23;20023;-80
2022/10/26 02:13:10;;;;;;;13.30;7.55;;;9.40;99.90;;;;;;6090845;23;20022;-80
2022/10/26 02:15:53;;;;;;;12.07;7.18;;;9.30;99.90;;;;;;6066593;23;20346;-80
2022/10/26 02:18:32;;;;;;;16.15;7.30;;;9.30;99.90;;;;;;6091120;23;20018;-80
2022/10/26 02:21:04;;;;;;;16.05;8.52;;;9.30;99.90;;;;;;6066229;23;20029;-80
2022/10/26 02:23:34;;;;;;;13.93;7.22;;;9.20;99.90;;;;;;6090985;23;20026;-80
2022/10/26 02:26:02;;;;;;;13.35;7.40;;;9.20;99.90;;;;;;6090998;23;20538;-80
2022/10/26 02:28:33;;;;;;;15.32;7.45;;;9.20;99.90;;;;;;6066723;23;20018;-80
2022/10/26 02:31:01;;;;;;;12.70;7.43;;;9.20;99.90;;;;;;6090706;23;20015;-80
2022/10/26 02:33:30;;;;;;;12.65;7.72;;;9.10;99.90;;;;;;6066478;23;20019;-80
2022/10/26 02:35:59;;;;;;;14.40;7.85;;;9.10;99.90;;;;;;6066444;23;20022;-80
2022/10/26 02:38:28;;;;;;;16.02;7.68;;;9.10;99.90;;;;;;6066229;23;20495;-80
2022/10/26 02:40:55;;;;;;;13.27;7.15;;;9.10;99.90;;;;;;6090050;23;20573;-81
2022/10/26 02:43:23;;;;;;;12.95;7.25;;;9.10;99.90;;;;;;6090372;23;20014;-80
2022/10/26 02:45:58;;;;;;;14.95;7.32;;;9.10;99.90;;;;;;6090448;23;20443;-80
2022/10/26 02:48:24;;;;;;;16.05;7.68;;;9.00;99.90;;;;;;6093171;23;20052;-80
2022/10/26 02:51:10;;;;;;;14.00;7.22;;;9.00;99.90;;;;;;6241828;23;20042;-80
2022/10/26 02:53:49;;;;;;;15.50;7.75;;;9.00;99.90;;;;;;6215084;23;20082;-80
2022/10/26 02:56:21;;;;;;;16.65;8.50;;;9.00;99.90;;;;;;6242578;23;20016;-80
2022/10/26 02:58:53;;;;;;;13.73;8.10;;;8.90;99.90;;;;;;6242231;23;20455;-80
2022/10/26 03:01:19;;;;;;;13.60;8.07;;;8.90;99.90;;;;;;6215657;23;20012;-80
2022/10/26 03:03:44;;;;;;;18.95;9.15;;;8.90;99.90;;;;;;6241970;23;20019;-80
2022/10/26 03:06:10;;;;;;;17.80;8.70;;;8.90;99.90;;;;;;6241929;23;20047;-80
2022/10/26 03:08:36;;;;;;;17.85;8.35;;;8.90;99.90;;;;;;6190298;23;20393;-80
2022/10/26 03:11:01;;;;;;;14.98;8.25;;;8.90;99.90;;;;;;6214576;23;20479;-80
2022/10/26 03:13:27;;;;;;;17.27;8.27;;;8.90;99.90;;;;;;6242576;23;20087;-80
2022/10/26 03:15:59;;;;;;;19.92;8.93;;;8.90;99.90;;;;;;6190126;23;20440;-80
2022/10/26 03:18:24;;;;;;;15.32;8.80;;;8.90;99.90;;;;;;6189963;23;20043;-80
2022/10/26 03:20:50;;;;;;;13.52;8.63;;;8.90;99.90;;;;;;6242190;23;20436;-80
2022/10/26 03:23:15;;;;;;;17.25;8.85;;;8.90;99.90;;;;;;6214792;23;20074;-80
2022/10/26 03:25:41;;;;;;;15.57;9.32;;;8.90;99.90;;;;;;6215321;23;20493;-80
2022/10/26 03:28:06;;;;;;;13.88;9.07;;;8.90;99.90;;;;;;6215368;23;20008;-80
2022/10/26 03:30:32;;;;;;;16.33;8.95;;;8.80;99.90;;;;;;6241445;23;20011;-79
2022/10/26 03:32:58;;;;;;;17.08;10.25;;;8.80;99.90;;;;;;6215141;23;20016;-80
2022/10/26 03:35:23;;;;;;;16.48;10.02;;;8.90;99.90;;;;;;6189686;23;20519;-80
2022/10/26 03:37:49;;;;;;;15.98;8.98;;;8.80;99.90;;;;;;6241333;23;20826;-80
2022/10/26 03:40:15;;;;;;;15.77;9.60;;;8.90;99.90;;;;;;6241653;23;20344;-79
2022/10/26 03:42:40;;;;;;;23.30;10.95;;;8.90;99.90;;;;;;6215201;23;20436;-80
2022/10/26 03:45:07;;;;;;;20.05;10.75;;;8.90;99.90;;;;;;6189103;23;20468;-79
2022/10/26 03:47:33;;;;;;;26.27;11.55;;;8.80;99.90;;;;;;6214509;23;20097;-79
2022/10/26 03:49:59;;;;;;;17.52;10.70;;;8.90;99.90;;;;;;6240848;23;20012;-80
2022/10/26 03:52:24;;;;;;;24.35;11.27;;;8.90;99.90;;;;;;6215087;23;20385;-80
2022/10/26 03:54:51;;;;;;;17.92;11.75;;;8.90;99.90;;;;;;6241838;23;20921;-79
2022/10/26 03:57:17;;;;;;;19.80;11.88;;;8.90;99.90;;;;;;6214384;23;20018;-79
2022/10/26 03:59:43;;;;;;;19.95;12.55;;;8.90;99.90;;;;;;6214733;23;20016;-79
2022/10/26 04:02:10;;;;;;;24.05;13.15;;;8.90;99.90;;;;;;6214673;23;20012;-80
2022/10/26 04:04:36;;;;;;;22.33;13.10;;;8.90;99.90;;;;;;6241808;23;20016;-79
2022/10/26 04:07:02;;;;;;;24.80;14.05;;;8.90;99.90;;;;;;6242298;23;20014;-80
2022/10/26 04:09:27;;;;;;;23.58;14.15;;;8.90;99.90;;;;;;6214548;23;20436;-80
2022/10/26 04:11:53;;;;;;;23.80;13.55;;;8.90;99.90;;;;;;6241430;23;20027;-79
2022/10/26 04:14:18;;;;;;;20.13;13.57;;;8.90;99.90;;;;;;6241606;23;20079;-79
2022/10/26 04:16:44;;;;;;;20.15;13.75;;;8.90;99.90;;;;;;6241146;23;20022;-79
2022/10/26 04:19:09;;;;;;;23.15;14.20;;;8.90;99.90;;;;;;6214343;23;20023;-80
2022/10/26 04:21:35;;;;;;;26.80;13.70;;;8.90;99.90;;;;;;6214869;23;20539;-79
2022/10/26 04:24:01;;;;;;;22.05;14.20;;;8.90;99.90;;;;;;6214059;23;20063;-80
2022/10/26 04:26:27;;;;;;;26.50;14.90;;;8.90;99.90;;;;;;6214058;23;20015;-79
2022/10/26 04:28:53;;;;;;;21.98;14.95;;;8.90;99.90;;;;;;6241291;23;20020;-80
2022/10/26 04:31:18;;;;;;;25.70;14.88;;;8.90;99.90;;;;;;6213868;23;20091;-79
2022/10/26 04:33:44;;;;;;;23.02;14.50;;;8.90;99.90;;;;;;6241369;23;20018;-79
2022/10/26 04:36:10;;;;;;;22.45;13.70;;;8.90;99.90;;;;;;6214358;23;20070;-79
2022/10/26 04:38:35;;;;;;;23.45;14.85;;;8.80;99.90;;;;;;6184138;23;20024;-79
2022/10/26 04:41:01;;;;;;;22.73;14.18;;;8.90;99.90;;;;;;6211265;23;20017;-79
2022/10/26 04:43:27;;;;;;;23.05;14.32;;;8.90;99.90;;;;;;6211354;23;20013;-79
2022/10/26 04:45:56;;;;;;;24.88;14.65;;;8.90;99.90;;;;;;6207864;23;20013;-79
2022/10/26 04:48:22;;;;;;;26.35;16.10;;;8.90;99.90;;;;;;6208885;23;20118;-79
2022/10/26 04:50:48;;;;;;;24.02;15.10;;;9.00;99.90;;;;;;6209604;23;20021;-79
2022/10/26 04:53:13;;;;;;;28.05;16.02;;;9.00;99.90;;;;;;6208609;23;20013;-79
2022/10/26 04:55:39;;;;;;;25.58;15.52;;;9.10;99.90;;;;;;6210392;23;20484;-79
2022/10/26 04:58:05;;;;;;;24.83;15.73;;;9.10;99.90;;;;;;6210553;23;20017;-79
2022/10/26 05:00:32;;;;;;;25.67;16.00;;;9.20;99.90;;;;;;6210299;23;20088;-80
2022/10/26 05:03:02;;;;;;;24.30;15.95;;;9.20;99.90;;;;;;6208702;23;20019;-80
2022/10/26 05:05:29;;;;;;;27.55;15.73;;;9.30;99.90;;;;;;6211302;23;20083;-80
2022/10/26 05:07:56;;;;;;;24.38;14.95;;;9.30;99.90;;;;;;6210711;23;20016;-81
2022/10/26 05:10:22;;;;;;;25.77;15.40;;;9.30;99.90;;;;;;6211559;23;20016;-80
2022/10/26 05:12:55;;;;;;;29.65;16.30;;;9.40;99.90;;;;;;6211075;23;20040;-81
2022/10/26 05:15:22;;;;;;;26.80;14.93;;;9.30;99.90;;;;;;6211981;23;20017;-81
2022/10/26 05:18:04;;;;;;;29.23;16.30;;;9.50;99.90;;;;;;6213313;23;20318;-82
2022/10/26 05:20:32;;;;;;;25.35;15.82;;;9.50;99.90;;;;;;6210478;23;20031;-81
2022/10/26 05:23:10;;;;;;;25.58;15.60;;;9.70;99.90;;;;;;6209696;23;20012;-81
2022/10/26 05:25:36;;;;;;;26.45;15.55;;;9.50;99.90;;;;;;6211307;23;20095;-81
2022/10/26 05:28:10;;;;;;;26.58;15.55;;;9.60;99.90;;;;;;6210618;23;20071;-81
2022/10/26 05:30:36;;;;;;;25.98;14.73;;;9.60;99.90;;;;;;6182830;23;20016;-81
2022/10/26 05:33:02;;;;;;;25.90;14.93;;;9.60;99.90;;;;;;6210382;23;20039;-81
2022/10/26 05:35:28;;;;;;;25.35;13.60;;;9.70;99.90;;;;;;6208681;23;20016;-81
2022/10/26 05:37:54;;;;;;;25.92;15.15;;;9.70;99.90;;;;;;6223629;23;20020;-80
2022/10/26 05:40:20;;;;;;;27.83;14.98;;;10.40;99.90;;;;;;6213715;23;20032;-82
2022/10/26 05:42:46;;;;;;;25.15;14.93;;;9.70;99.90;;;;;;6240586;23;20008;-83
2022/10/26 05:45:12;;;;;;;23.35;15.02;;;9.90;99.90;;;;;;6213017;23;20480;-83
2022/10/26 05:47:41;;;;;;;25.60;14.15;;;9.80;99.90;;;;;;6240635;23;20433;-83
2022/10/26 05:50:08;;;;;;;26.20;14.82;;;9.80;99.90;;;;;;6213810;23;20372;-83
2022/10/26 05:52:44;;;;;;;24.27;15.32;;;9.80;99.90;;;;;;6240661;23;20456;-82
2022/10/26 05:55:12;;;;;;;22.13;14.13;;;9.80;99.90;;;;;;6240974;23;20058;-83
2022/10/26 05:57:39;;;;;;;26.33;15.07;;;9.90;99.90;;;;;;6213686;23;20008;-83
2022/10/26 06:00:16;;;;;;;25.45;14.73;;;9.90;99.90;;;;;;6213094;23;20336;-83
2022/10/26 06:03:06;;;;;;;26.80;15.43;;;9.90;99.90;;;;;;6240914;23;20012;-83
2022/10/26 06:05:38;;;;;;;24.40;14.52;;;9.90;99.90;;;;;;6213967;23;20328;-83
2022/10/26 06:08:09;;;;;;;21.17;14.88;;;9.90;99.90;;;;;;6188798;23;20310;-83
2022/10/26 06:10:35;;;;;;;23.92;15.48;;;9.90;99.90;;;;;;6214392;23;20020;-84
2022/10/26 06:13:01;;;;;;;23.40;14.35;;;9.80;99.90;;;;;;6213229;23;20012;-83
2022/10/26 06:15:27;;;;;;;22.90;15.15;;;9.80;99.90;;;;;;6213967;23;20436;-83
2022/10/26 06:18:00;;;;;;;21.48;14.05;;;9.90;99.90;;;;;;6241297;23;20016;-82
2022/10/26 06:20:34;;;;;;;23.50;14.18;;;9.80;99.90;;;;;;6238933;23;20077;-82
2022/10/26 06:23:17;;;;;;;;;;;9.90;99.90;;;;;;6241548;23;20016;-83
2022/10/26 06:26:06;;;;;;;18.80;12.93;;;9.90;99.90;;;;;;6240165;23;20393;-84
2022/10/26 06:29:02;;;;;;;19.70;13.32;;;9.90;99.90;;;;;;6240323;23;20031;-83
2022/10/26 06:31:28;;;;;;;24.10;13.27;;;9.90;99.90;;;;;;6213813;23;20016;-83
2022/10/26 06:33:58;;;;;;;19.60;13.05;;;9.90;99.90;;;;;;6188365;23;20012;-83
2022/10/26 06:36:26;;;;;;;22.17;13.00;;;10.00;99.90;;;;;;6213177;23;20043;-83
2022/10/26 06:39:13;;;;;;;22.52;12.88;;;9.90;99.90;;;;;;6213879;23;20016;-84
2022/10/26 06:41:39;;;;;;;22.45;13.23;;;10.00;99.90;;;;;;6241017;23;20095;-83
2022/10/26 06:44:05;;;;;;;20.83;12.63;;;10.00;99.90;;;;;;6213738;23;20448;-84
2022/10/26 06:46:40;;;;;;;19.67;12.52;;;10.00;99.90;;;;;;6213490;23;20012;-84
2022/10/26 06:49:08;;;;;;;19.50;12.25;;;10.00;99.90;;;;;;6215289;23;20088;-84
2022/10/26 06:51:56;;;;;;;20.27;12.90;;;10.00;99.90;;;;;;6190604;23;20012;-83
2022/10/26 06:54:27;;;;;;;19.30;11.80;;;10.10;99.90;;;;;;6215448;23;20016;-84
2022/10/26 06:56:53;;;;;;;16.60;11.45;;;10.10;99.90;;;;;;6189489;23;20020;-84
2022/10/26 06:59:31;;;;;;;19.48;11.38;;;10.10;99.90;;;;;;6242583;23;20073;-84
2022/10/26 07:01:57;;;;;;;23.27;11.52;;;10.10;99.90;;;;;;6215098;23;20350;-84
2022/10/26 07:04:22;;;;;;;17.15;11.20;;;10.20;99.90;;;;;;6215469;23;20012;-84
2022/10/26 07:06:48;;;;;;;20.80;12.20;;;10.20;99.90;;;;;;6242378;23;20013;-84
2022/10/26 07:09:13;;;;;;;21.77;10.90;;;10.20;99.90;;;;;;6190246;23;20016;-84
2022/10/26 07:11:39;;;;;;;19.65;11.13;;;10.30;99.90;;;;;;6190078;23;20098;-84
2022/10/26 07:14:05;;;;;;;17.92;10.63;;;10.30;99.90;;;;;;6241614;23;20340;-84
2022/10/26 07:16:30;;;;;;;21.77;10.80;;;10.40;99.90;;;;;;6242677;23;20011;-84
2022/10/26 07:18:56;;;;;;;19.70;11.25;;;10.40;99.90;;;;;;6214863;23;20020;-85
2022/10/26 07:21:22;;;;;;;18.60;10.95;;;10.40;99.90;;;;;;6215110;23;20017;-85
2022/10/26 07:23:48;;;;;;;18.23;10.85;;;10.50;99.90;;;;;;6215503;23;20012;-84
2022/10/26 07:26:13;;;;;;;17.90;10.43;;;10.50;99.90;;;;;;6213817;23;20039;-84
2022/10/26 07:28:39;;;;;;;18.60;10.55;;;10.60;99.90;;;;;;6241912;23;20019;-85
2022/10/26 07:31:05;;;;;;;17.30;9.57;;;10.60;99.90;;;;;;6242348;23;20024;-84
2022/10/26 07:33:30;;;;;;;18.85;9.02;;;10.70;99.90;;;;;;6242320;23;20340;-85
2022/10/26 07:35:58;;;;;;;20.13;9.55;;;10.70;99.90;;;;;;6190168;23;20016;-84
2022/10/26 07:38:24;;;;;;;16.23;8.55;;;10.80;99.90;;;;;;6189528;23;20389;-83
2022/10/26 07:40:49;;;;;;;14.70;8.57;;;10.80;99.90;;;;;;6214425;23;20027;-84
2022/10/26 07:43:15;;;;;;;13.00;8.13;;;10.90;99.90;;;;;;6214478;23;20012;-83
2022/10/26 07:45:40;;;;;;;16.02;8.27;;;11.00;99.90;;;;;;6214093;23;20062;-84
2022/10/26 07:48:06;;;;;;;16.27;8.80;;;11.10;99.90;;;;;;6213676;23;20023;-85
2022/10/26 07:50:32;;;;;;;14.32;7.68;;;11.10;99.90;;;;;;6240974;23;20048;-85
2022/10/26 07:52:58;;;;;;;14.57;8.00;;;11.20;99.90;;;;;;6214564;23;20352;-84
2022/10/26 07:55:24;;;;;;;12.95;8.07;;;11.30;99.90;;;;;;6213825;23;20540;-84
2022/10/26 07:57:49;;;;;;;15.50;7.05;;;11.30;99.90;;;;;;6187852;23;20027;-84
2022/10/26 08:00:15;;;;;;;14.57;7.35;;;11.40;99.90;;;;;;6241059;23;20340;-84
2022/10/26 08:02:41;;;;;;;12.60;6.90;;;11.50;99.90;;;;;;6215254;23;20430;-84
2022/10/26 08:05:07;;;;;;;13.07;6.53;;;11.50;99.90;;;;;;6214584;23;20023;-84
2022/10/26 08:07:32;;;;;;;13.35;6.78;;;11.50;99.90;;;;;;6190182;23;20012;-85
2022/10/26 08:09:58;;;;;;;15.85;6.57;;;11.60;99.90;;;;;;6240968;23;20047;-84
2022/10/26 08:12:23;;;;;;;13.57;6.50;;;11.70;99.90;;;;;;6214731;23;20014;-84
2022/10/26 08:14:49;;;;;;;12.48;6.47;;;11.70;99.90;;;;;;6189409;23;20019;-85
2022/10/26 08:17:15;;;;;;;13.48;5.75;;;11.80;99.90;;;;;;6214753;23;20109;-84
2022/10/26 08:19:40;;;;;;;18.05;6.35;;;11.90;99.90;;;;;;6214612;23;20023;-85
2022/10/26 08:22:06;;;;;;;11.55;5.47;;;12.00;99.90;;;;;;6214492;23;20030;-84
2022/10/26 08:24:32;;;;;;;11.02;5.28;;;12.10;99.90;;;;;;6241050;23;20062;-85
2022/10/26 08:26:57;;;;;;;12.27;5.20;;;12.30;99.90;;;;;;6241507;23;20091;-85
2022/10/26 08:29:23;;;;;;;12.75;5.60;;;12.20;99.90;;;;;;6214567;23;20008;-85
2022/10/26 08:31:48;;;;;;;12.20;5.03;;;12.30;99.90;;;;;;6214723;23;20016;-84
2022/10/26 08:34:14;;;;;;;10.13;4.97;;;12.30;99.90;;;;;;6240978;23;20337;-85
2022/10/26 08:36:40;;;;;;;10.68;4.70;;;12.30;99.90;;;;;;6214733;23;20016;-84
2022/10/26 08:39:05;;;;;;;12.05;5.15;;;12.40;99.90;;;;;;6214025;23;20563;-84
2022/10/26 08:41:43;;;;;;;11.43;5.05;;;12.40;99.90;;;;;;6240992;23;20016;-84
2022/10/26 08:44:29;;;;;;;13.90;4.50;;;12.40;99.90;;;;;;6241395;23;20016;-85
2022/10/26 08:47:08;;;;;;;6.60;4.13;;;12.40;99.90;;;;;;6214146;23;20083;-84
2022/10/26 08:49:43;;;;;;;10.50;3.97;;;12.40;99.90;;;;;;6241262;23;20015;-84
2022/10/26 08:52:13;;;;;;;10.43;4.13;;;12.40;99.90;;;;;;6214404;23;20009;-85
2022/10/26 08:54:43;;;;;;;9.82;4.40;;;12.40;99.90;;;;;;6241259;23;20459;-84
2022/10/26 08:57:21;;;;;;;8.88;4.15;;;12.40;99.90;;;;;;6241033;23;20448;-85
2022/10/26 09:00:00;;;;;;;8.65;4.07;;;12.50;99.90;;;;;;6241030;23;20058;-84
2022/10/26 09:02:26;;;;;;;8.68;3.47;;;12.60;99.90;;;;;;6214426;23;20034;-84
2022/10/26 09:04:54;;;;;;;6.55;3.70;;;12.70;99.90;;;;;;6214131;23;20444;-85
2022/10/26 09:07:33;;;;;;;11.65;3.30;;;12.80;99.90;;;;;;6241091;23;20071;-84
2022/10/26 09:10:16;;;;;;;7.82;3.47;;;12.80;99.90;;;;;;6213636;23;20016;-85
2022/10/26 09:13:08;;;;;;;7.30;3.97;;;12.90;99.90;;;;;;6213581;23;20014;-84
2022/10/26 09:15:40;;;;;;;7.50;3.70;;;13.00;99.90;;;;;;6207296;23;20016;-84
2022/10/26 09:18:16;;;;;;;8.40;3.80;;;13.00;99.90;;;;;;6213577;23;20512;-85
2022/10/26 09:20:51;;;;;;;10.43;3.65;;;13.20;99.90;;;;;;6188863;23;20012;-85
2022/10/26 09:23:35;;;;;;;9.43;3.58;;;13.30;99.90;;;;;;6213714;23;20012;-84
2022/10/26 09:26:02;;;;;;;14.82;5.03;;;13.40;99.90;;;;;;6214545;23;20464;-84
2022/10/26 09:28:33;;;;;;;6.25;3.50;;;13.50;99.90;;;;;;6241664;23;20004;-85
2022/10/26 09:31:00;;;;;;;9.50;3.28;;;13.60;99.90;;;;;;6214003;23;20365;-84
2022/10/26 09:33:27;;;;;;;7.53;3.38;;;13.70;99.90;;;;;;6214223;23;20012;-84
2022/10/26 09:36:07;;;;;;;9.40;3.72;;;13.90;99.90;;;;;;6240662;23;20062;-85
2022/10/26 09:38:58;;;;;;;8.43;4.00;;;14.10;99.90;;;;;;6214000;23;20354;-85
2022/10/26 09:41:35;;;;;;;11.25;3.28;;;14.30;99.90;;;;;;6214029;23;20077;-85
2022/10/26 09:44:20;;;;;;;8.95;4.28;;;14.40;99.90;;;;;;6214266;23;20364;-85
2022/10/26 09:46:52;;;;;;;8.25;3.40;;;14.50;99.90;;;;;;6214127;23;20016;-85
2022/10/26 09:49:22;;;;;;;11.13;3.35;;;14.60;99.90;;;;;;6214135;23;20019;-85
2022/10/26 09:51:48;;;;;;;7.32;2.78;;;14.70;99.90;;;;;;6213183;23;20048;-85
2022/10/26 09:54:17;;;;;;;5.88;3.47;;;14.90;99.90;;;;;;6189405;23;20598;-85
2022/10/26 09:56:46;;;;;;;10.68;2.88;;;14.90;99.90;;;;;;6189077;23;20012;-85
2022/10/26 09:59:13;;;;;;;5.93;2.63;;;14.90;99.90;;;;;;6241350;23;20058;-84
2022/10/26 10:01:38;;;;;;;5.78;2.50;;;15.00;99.90;;;;;;6213880;23;20013;-85
2022/10/26 10:04:15;;;;;;;9.45;2.60;;;15.10;99.90;;;;;;6213434;23;20015;-85
2022/10/26 10:06:42;;;;;;;9.15;2.80;;;15.10;99.90;;;;;;6240205;23;20039;-85
2022/10/26 10:09:09;;;;;;;9.20;3.20;;;15.10;99.90;;;;;;6214036;23;20027;-85
2022/10/26 10:12:01;;;;;;;4.55;2.28;;;15.10;99.90;;;;;;6241365;23;20085;-85
2022/10/26 10:14:57;;;;;;;5.25;2.03;;;15.30;99.90;;;;;;6241359;23;20016;-85
2022/10/26 10:17:23;;;;;;;8.48;2.10;;;15.50;99.90;;;;;;6201829;23;20044;-85
2022/10/26 10:19:50;;;;;;;7.25;2.50;;;15.60;99.90;;;;;;6240267;23;20054;-85
2022/10/26 10:22:22;;;;;;;6.47;2.15;;;15.70;99.90;;;;;;6242148;23;20091;-85
2022/10/26 10:25:02;;;;;;;8.07;2.47;;;15.80;99.90;;;;;;6242616;23;20031;-86
2022/10/26 10:27:29;;;;;;;7.55;2.33;;;15.80;99.90;;;;;;6242939;23;20008;-86
2022/10/26 10:30:12;;;;;;;9.02;2.22;;;15.80;99.90;;;;;;6242633;23;20066;-86
2022/10/26 10:32:37;;;;;;;3.80;2.20;;;15.90;99.90;;;;;;6242820;23;20016;-86
2022/10/26 10:35:28;;;;;;;6.43;2.10;;;16.00;99.90;;;;;;6241638;23;20087;-85
2022/10/26 10:37:53;;;;;;;7.32;2.20;;;16.00;99.90;;;;;;6242403;23;20113;-86
2022/10/26 10:40:25;;;;;;;7.82;2.40;;;16.20;99.90;;;;;;6242637;23;20020;-86
2022/10/26 10:42:54;;;;;;;4.80;2.42;;;16.30;99.90;;;;;;6242817;23;20012;-86
2022/10/26 10:45:23;;;;;;;11.45;2.60;;;16.40;99.90;;;;;;6242571;23;20016;-84
2022/10/26 10:48:12;;;;;;;8.75;2.97;;;16.40;99.90;;;;;;6244108;23;20432;-84
2022/10/26 10:50:59;;;;;;;7.05;2.30;;;16.50;99.90;;;;;;6192046;23;20504;-84
2022/10/26 10:53:25;;;;;;;5.57;2.63;;;16.50;99.90;;;;;;6244608;23;20016;-83
2022/10/26 10:56:24;;;;;;;9.13;2.42;;;16.60;99.90;;;;;;6217145;23;20019;-84
2022/10/26 10:59:14;;;;;;;5.18;2.42;;;16.60;99.90;;;;;;6244241;23;20020;-86
2022/10/26 11:01:49;;;;;;;7.85;2.92;;;16.70;99.90;;;;;;6247085;23;20027;-85
2022/10/26 11:04:33;;;;;;;8.13;2.40;;;16.70;99.90;;;;;;6221136;23;20043;-88
2022/10/26 11:07:01;;;;;;;7.90;3.00;;;16.70;99.90;;;;;;6221499;23;20012;-90
2022/10/26 11:09:30;;;;;;;6.80;2.33;;;16.70;99.90;;;;;;6248831;23;20371;-91
2022/10/26 11:12:16;;;;;;;9.38;2.60;;;16.80;99.90;;;;;;6246718;23;20085;-88
2022/10/26 11:14:46;;;;;;;8.38;2.60;;;16.80;99.90;;;;;;6219998;23;20050;-88
2022/10/26 11:17:14;;;;;;;7.47;2.28;;;16.90;99.90;;;;;;6218833;23;20357;-88
2022/10/26 11:19:50;;;;;;;6.03;2.50;;;17.00;99.90;;;;;;6246958;23;20081;-89
2022/10/26 11:22:27;;;;;;;6.50;2.20;;;17.10;99.90;;;;;;6219996;23;20016;-89
2022/10/26 11:25:10;;;;;;;8.55;2.38;;;17.10;99.90;;;;;;6219815;23;20014;-88
2022/10/26 11:27:45;;;;;;;7.20;2.20;;;17.20;99.90;;;;;;6246215;23;20019;-89
2022/10/26 11:30:18;;;;;;;8.13;2.13;;;17.40;99.90;;;;;;6218091;23;20020;-89
2022/10/26 11:33:08;;;;;;;6.65;2.15;;;17.60;99.90;;;;;;6218867;23;20074;-89
2022/10/26 11:35:51;;;;;;;7.43;2.13;;;17.80;99.90;;;;;;6217917;23;20015;-89
2022/10/26 11:38:25;;;;;;;6.68;2.60;;;17.80;99.90;;;;;;6221763;23;20031;-87
2022/10/26 11:40:57;;;;;;;8.15;2.28;;;17.90;99.90;;;;;;6248322;23;20056;-88
2022/10/26 11:43:43;;;;;;;7.00;2.17;;;18.00;99.90;;;;;;6218185;23;20027;-88
2022/10/26 11:46:38;;;;;;;8.68;2.00;;;18.00;99.90;;;;;;6218662;23;20440;-87
2022/10/26 11:49:41;;;;;;;8.07;2.53;;;18.00;99.90;;;;;;6245923;23;20071;-88
2022/10/26 11:52:16;;;;;;;6.35;2.10;;;18.00;99.90;;;;;;6245106;23;20309;-87
2022/10/26 11:54:59;;;;;;;6.30;2.20;;;18.10;99.90;;;;;;6192275;23;20513;-87
2022/10/26 11:57:27;;;;;;;8.18;2.80;;;18.20;99.90;;;;;;6245160;23;20047;-89
2022/10/26 12:00:01;;;;;;;11.57;2.75;;;18.30;99.90;;;;;;6219325;23;20012;-87
2022/10/26 12:02:27;;;;;;;5.80;2.25;;;18.40;99.90;;;;;;6217199;23;20091;-88
2022/10/26 12:05:19;;;;;;;9.73;2.28;;;18.50;99.90;;;;;;6218336;23;20051;-87
2022/10/26 12:07:59;;;;;;;8.68;2.35;;;18.60;99.90;;;;;;6201483;23;20008;-88
2022/10/26 12:10:31;;;;;;;7.07;2.28;;;18.70;99.90;;;;;;6193498;23;20043;-87
2022/10/26 12:13:31;;;;;;;8.20;2.55;;;18.80;99.90;;;;;;6218529;23;20016;-87
2022/10/26 12:16:23;;;;;;;10.77;2.85;;;18.90;99.90;;;;;;6216292;23;20154;-83
2022/10/26 12:18:58;;;;;;;6.03;2.13;;;18.90;99.90;;;;;;6218811;23;20046;-87
2022/10/26 12:21:29;;;;;;;6.88;2.53;;;19.00;99.90;;;;;;6192425;23;20027;-87
2022/10/26 12:24:21;;;;;;;7.72;2.10;;;19.10;99.90;;;;;;6244975;23;20299;-87
2022/10/26 12:26:57;;;;;;;5.22;2.15;;;19.20;99.90;;;;;;6216952;23;20012;-87
2022/10/26 12:29:31;;;;;;;5.18;1.80;;;19.10;99.90;;;;;;6191626;23;20095;-87
2022/10/26 12:31:57;;;;;;;7.70;2.15;;;19.10;99.90;;;;;;6243352;23;20016;-87
2022/10/26 12:34:45;;;;;;;4.32;1.77;;;19.10;99.90;;;;;;6191624;23;20012;-87
2022/10/26 12:37:23;;;;;;;7.22;1.98;;;19.10;99.90;;;;;;6215696;23;21134;-86
2022/10/26 12:39:49;;;;;;;5.68;1.95;;;19.10;99.90;;;;;;6216957;23;20051;-87
2022/10/26 12:42:14;;;;;;;8.23;2.00;;;19.30;99.90;;;;;;6191236;23;20332;-87
2022/10/26 12:44:46;;;;;;;9.45;2.58;;;19.30;99.90;;;;;;6215449;23;20228;-87
2022/10/26 12:47:37;;;;;;;10.15;2.28;;;19.40;99.90;;;;;;6216273;23;20012;-87
2022/10/26 12:50:06;;;;;;;6.05;2.13;;;19.40;99.90;;;;;;6160672;23;20012;-87
2022/10/26 12:52:53;;;;;;;7.57;2.50;;;19.50;99.90;;;;;;6218064;23;20558;-88
2022/10/26 12:55:37;;;;;;;7.25;2.28;;;19.40;99.90;;;;;;6217658;23;20097;-86
2022/10/26 12:58:44;;;;;;;12.57;2.80;;;19.30;99.90;;;;;;6217336;23;20090;-87
2022/10/26 13:01:47;;;;;;;9.52;2.60;;;19.20;99.90;;;;;;6217073;23;20008;-87
2022/10/26 13:04:22;;;;;;;8.32;2.33;;;19.10;99.90;;;;;;6216647;23;20336;-87
2022/10/26 13:07:13;;;;;;;6.70;2.65;;;19.10;99.90;;;;;;6216770;23;20036;-86